Terminal Aerodrome Forecast
Issued by NWS

Home | Current Version | Previous Version | Text Only | Print | Product List | Glossary On
Versions: 1 2 3 4 5 6 7 8 9 10 11 12 13
076
FTUS42 TJSJ 270520
TAFJPS
TAF
TJPS 270520Z 2706/2806 11007KT P6SM VCSH BKN040
     FM271500 13012KT P6SM FEW030 SCT060
     FM272200 08008KT P6SM FEW035 SCT050
      AMD NOT SKED=

USA.gov is the U.S. government's official web portal to all federal, state and local government web resources and services.